sensor_id;sensor_type;location;lat;lon;timestamp;P1;durP1;ratioP1;P2;durP2;ratioP2
27576;SDS011;15011;53.380;10.034;2022-09-09T00:02:28;70.50;;;26.80;;
27576;SDS011;15011;53.380;10.034;2022-09-09T00:07:48;188.55;;;34.58;;
27576;SDS011;15011;53.380;10.034;2022-09-09T00:12:57;115.28;;;31.95;;
27576;SDS011;15011;53.380;10.034;2022-09-09T00:18:13;95.43;;;30.02;;
27576;SDS011;15011;53.380;10.034;2022-09-09T00:23:21;56.55;;;27.23;;
27576;SDS011;15011;53.380;10.034;2022-09-09T00:28:25;50.42;;;26.05;;
27576;SDS011;15011;53.380;10.034;2022-09-09T00:33:27;41.72;;;23.83;;
27576;SDS011;15011;53.380;10.034;2022-09-09T00:38:34;39.92;;;23.15;;
27576;SDS011;15011;53.380;10.034;2022-09-09T00:43:37;42.08;;;22.83;;
27576;SDS011;15011;53.380;10.034;2022-09-09T00:48:58;42.63;;;24.17;;
27576;SDS011;15011;53.380;10.034;2022-09-09T00:59:48;46.05;;;24.65;;
27576;SDS011;15011;53.380;10.034;2022-09-09T01:04:51;41.17;;;23.83;;
27576;SDS011;15011;53.380;10.034;2022-09-09T01:09:58;55.38;;;25.88;;
27576;SDS011;15011;53.380;10.034;2022-09-09T01:15:11;63.78;;;27.60;;
27576;SDS011;15011;53.380;10.034;2022-09-09T01:20:17;33.33;;;22.10;;
27576;SDS011;15011;53.380;10.034;2022-09-09T01:30:43;46.25;;;23.92;;
27576;SDS011;15011;53.380;10.034;2022-09-09T01:35:48;41.90;;;23.77;;
27576;SDS011;15011;53.380;10.034;2022-09-09T01:40:54;50.80;;;25.35;;
27576;SDS011;15011;53.380;10.034;2022-09-09T01:45:56;67.70;;;25.80;;
27576;SDS011;15011;53.380;10.034;2022-09-09T01:50:58;63.30;;;26.75;;
27576;SDS011;15011;53.380;10.034;2022-09-09T02:01:08;71.20;;;27.02;;
27576;SDS011;15011;53.380;10.034;2022-09-09T02:11:26;52.08;;;25.00;;
27576;SDS011;15011;53.380;10.034;2022-09-09T02:16:38;44.72;;;23.00;;
27576;SDS011;15011;53.380;10.034;2022-09-09T02:21:40;42.00;;;22.48;;
27576;SDS011;15011;53.380;10.034;2022-09-09T02:26:42;37.30;;;20.40;;
27576;SDS011;15011;53.380;10.034;2022-09-09T02:31:44;45.50;;;23.00;;
27576;SDS011;15011;53.380;10.034;2022-09-09T02:36:45;38.15;;;20.90;;
27576;SDS011;15011;53.380;10.034;2022-09-09T02:41:47;87.47;;;28.80;;
27576;SDS011;15011;53.380;10.034;2022-09-09T02:52:15;35.40;;;18.45;;
27576;SDS011;15011;53.380;10.034;2022-09-09T02:57:21;63.50;;;23.38;;
27576;SDS011;15011;53.380;10.034;2022-09-09T03:02:24;32.03;;;19.38;;
27576;SDS011;15011;53.380;10.034;2022-09-09T03:07:25;39.65;;;21.98;;
27576;SDS011;15011;53.380;10.034;2022-09-09T03:12:26;37.35;;;20.50;;
27576;SDS011;15011;53.380;10.034;2022-09-09T03:17:27;40.35;;;21.92;;
27576;SDS011;15011;53.380;10.034;2022-09-09T03:22:28;32.55;;;18.85;;
27576;SDS011;15011;53.380;10.034;2022-09-09T03:27:28;51.30;;;24.50;;
27576;SDS011;15011;53.380;10.034;2022-09-09T03:32:29;47.30;;;23.48;;
27576;SDS011;15011;53.380;10.034;2022-09-09T03:37:31;50.72;;;23.65;;
27576;SDS011;15011;53.380;10.034;2022-09-09T03:42:31;33.42;;;19.33;;
27576;SDS011;15011;53.380;10.034;2022-09-09T03:47:32;41.38;;;20.80;;
27576;SDS011;15011;53.380;10.034;2022-09-09T03:52:34;38.85;;;20.58;;
27576;SDS011;15011;53.380;10.034;2022-09-09T03:57:35;58.38;;;25.33;;
27576;SDS011;15011;53.380;10.034;2022-09-09T04:02:36;38.47;;;20.17;;
27576;SDS011;15011;53.380;10.034;2022-09-09T04:07:37;37.70;;;19.93;;
27576;SDS011;15011;53.380;10.034;2022-09-09T04:12:37;41.35;;;20.40;;
27576;SDS011;15011;53.380;10.034;2022-09-09T04:17:37;44.43;;;20.63;;
27576;SDS011;15011;53.380;10.034;2022-09-09T04:22:38;32.35;;;18.75;;
27576;SDS011;15011;53.380;10.034;2022-09-09T04:27:39;59.50;;;23.60;;
27576;SDS011;15011;53.380;10.034;2022-09-09T04:32:40;44.90;;;21.30;;
27576;SDS011;15011;53.380;10.034;2022-09-09T04:37:40;33.35;;;17.48;;
27576;SDS011;15011;53.380;10.034;2022-09-09T04:42:40;27.35;;;15.27;;
27576;SDS011;15011;53.380;10.034;2022-09-09T04:47:44;26.80;;;15.13;;
27576;SDS011;15011;53.380;10.034;2022-09-09T04:52:44;37.58;;;17.80;;
27576;SDS011;15011;53.380;10.034;2022-09-09T04:57:44;26.23;;;14.77;;
27576;SDS011;15011;53.380;10.034;2022-09-09T05:02:45;19.38;;;12.60;;
27576;SDS011;15011;53.380;10.034;2022-09-09T05:07:46;24.50;;;14.60;;
27576;SDS011;15011;53.380;10.034;2022-09-09T05:12:53;21.50;;;13.90;;
27576;SDS011;15011;53.380;10.034;2022-09-09T05:17:57;29.20;;;16.08;;
27576;SDS011;15011;53.380;10.034;2022-09-09T05:22:59;20.65;;;13.40;;
27576;SDS011;15011;53.380;10.034;2022-09-09T05:27:59;27.75;;;14.27;;
27576;SDS011;15011;53.380;10.034;2022-09-09T05:33:00;26.42;;;15.27;;
27576;SDS011;15011;53.380;10.034;2022-09-09T05:38:00;20.43;;;13.53;;
27576;SDS011;15011;53.380;10.034;2022-09-09T05:43:02;22.30;;;12.60;;
27576;SDS011;15011;53.380;10.034;2022-09-09T05:48:02;19.35;;;11.55;;
27576;SDS011;15011;53.380;10.034;2022-09-09T05:53:02;21.35;;;12.20;;
27576;SDS011;15011;53.380;10.034;2022-09-09T05:58:03;21.92;;;11.43;;
27576;SDS011;15011;53.380;10.034;2022-09-09T06:03:04;24.30;;;13.35;;
27576;SDS011;15011;53.380;10.034;2022-09-09T06:08:04;18.52;;;10.57;;
27576;SDS011;15011;53.380;10.034;2022-09-09T06:13:05;17.50;;;10.52;;
27576;SDS011;15011;53.380;10.034;2022-09-09T06:18:05;21.95;;;12.57;;
27576;SDS011;15011;53.380;10.034;2022-09-09T06:23:06;23.70;;;12.10;;
27576;SDS011;15011;53.380;10.034;2022-09-09T06:28:06;13.15;;;8.75;;
27576;SDS011;15011;53.380;10.034;2022-09-09T06:33:07;20.23;;;10.43;;
27576;SDS011;15011;53.380;10.034;2022-09-09T06:38:07;16.13;;;9.70;;
27576;SDS011;15011;53.380;10.034;2022-09-09T06:43:08;20.67;;;10.85;;
27576;SDS011;15011;53.380;10.034;2022-09-09T06:48:08;22.20;;;12.88;;
27576;SDS011;15011;53.380;10.034;2022-09-09T06:53:09;11.65;;;8.15;;
27576;SDS011;15011;53.380;10.034;2022-09-09T06:58:10;13.95;;;8.50;;
27576;SDS011;15011;53.380;10.034;2022-09-09T07:03:10;14.63;;;8.20;;
27576;SDS011;15011;53.380;10.034;2022-09-09T07:08:10;10.73;;;6.32;;
27576;SDS011;15011;53.380;10.034;2022-09-09T07:13:11;14.57;;;7.60;;
27576;SDS011;15011;53.380;10.034;2022-09-09T07:18:12;17.40;;;7.07;;
27576;SDS011;15011;53.380;10.034;2022-09-09T07:23:12;13.48;;;6.85;;
27576;SDS011;15011;53.380;10.034;2022-09-09T07:28:13;11.68;;;6.53;;
27576;SDS011;15011;53.380;10.034;2022-09-09T07:33:14;12.55;;;6.40;;
27576;SDS011;15011;53.380;10.034;2022-09-09T07:38:14;17.67;;;7.30;;
27576;SDS011;15011;53.380;10.034;2022-09-09T07:43:15;13.55;;;7.10;;
27576;SDS011;15011;53.380;10.034;2022-09-09T07:48:16;10.35;;;5.50;;
27576;SDS011;15011;53.380;10.034;2022-09-09T07:53:16;13.53;;;5.90;;
27576;SDS011;15011;53.380;10.034;2022-09-09T07:58:17;12.70;;;5.00;;
27576;SDS011;15011;53.380;10.034;2022-09-09T08:03:17;13.32;;;4.60;;
27576;SDS011;15011;53.380;10.034;2022-09-09T08:08:18;7.88;;;4.20;;
27576;SDS011;15011;53.380;10.034;2022-09-09T08:13:18;7.53;;;4.00;;
27576;SDS011;15011;53.380;10.034;2022-09-09T08:18:19;5.82;;;4.40;;
27576;SDS011;15011;53.380;10.034;2022-09-09T08:23:19;6.77;;;3.63;;
27576;SDS011;15011;53.380;10.034;2022-09-09T08:28:20;8.98;;;3.85;;
27576;SDS011;15011;53.380;10.034;2022-09-09T08:33:20;5.80;;;3.13;;
27576;SDS011;15011;53.380;10.034;2022-09-09T08:38:20;9.70;;;4.93;;
27576;SDS011;15011;53.380;10.034;2022-09-09T08:43:21;8.00;;;3.45;;
27576;SDS011;15011;53.380;10.034;2022-09-09T08:48:46;7.67;;;3.47;;
27576;SDS011;15011;53.380;10.034;2022-09-09T08:53:49;5.25;;;3.10;;
27576;SDS011;15011;53.380;10.034;2022-09-09T08:58:52;9.97;;;3.60;;
27576;SDS011;15011;53.380;10.034;2022-09-09T09:03:59;3.47;;;2.83;;
27576;SDS011;15011;53.380;10.034;2022-09-09T09:14:22;3.97;;;2.17;;
27576;SDS011;15011;53.380;10.034;2022-09-09T09:19:26;7.40;;;2.80;;
27576;SDS011;15011;53.380;10.034;2022-09-09T09:29:33;8.18;;;2.20;;
27576;SDS011;15011;53.380;10.034;2022-09-09T09:34:35;5.93;;;2.10;;
27576;SDS011;15011;53.380;10.034;2022-09-09T09:39:35;5.45;;;1.50;;
27576;SDS011;15011;53.380;10.034;2022-09-09T09:44:38;4.75;;;1.48;;
27576;SDS011;15011;53.380;10.034;2022-09-09T09:49:39;5.60;;;1.63;;
27576;SDS011;15011;53.380;10.034;2022-09-09T09:54:41;3.17;;;1.33;;
27576;SDS011;15011;53.380;10.034;2022-09-09T09:59:42;3.35;;;1.02;;
27576;SDS011;15011;53.380;10.034;2022-09-09T10:04:43;6.25;;;1.33;;
27576;SDS011;15011;53.380;10.034;2022-09-09T10:09:45;4.75;;;1.20;;
27576;SDS011;15011;53.380;10.034;2022-09-09T10:36:20;4.35;;;1.08;;
27576;SDS011;15011;53.380;10.034;2022-09-09T10:41:35;3.38;;;1.10;;
27576;SDS011;15011;53.380;10.034;2022-09-09T10:47:03;4.43;;;0.95;;
27576;SDS011;15011;53.380;10.034;2022-09-09T10:52:11;1.85;;;1.05;;
27576;SDS011;15011;53.380;10.034;2022-09-09T10:58:00;4.38;;;1.20;;
27576;SDS011;15011;53.380;10.034;2022-09-09T11:02:39;4.38;;;1.30;;
27576;SDS011;15011;53.380;10.034;2022-09-09T11:07:44;2.50;;;1.20;;
27576;SDS011;15011;53.380;10.034;2022-09-09T11:12:48;3.97;;;1.80;;
27576;SDS011;15011;53.380;10.034;2022-09-09T11:17:56;6.78;;;1.23;;
27576;SDS011;15011;53.380;10.034;2022-09-09T11:23:00;5.35;;;1.55;;
27576;SDS011;15011;53.380;10.034;2022-09-09T11:38:52;2.42;;;1.05;;
27576;SDS011;15011;53.380;10.034;2022-09-09T11:43:53;4.45;;;1.40;;
27576;SDS011;15011;53.380;10.034;2022-09-09T11:48:58;5.55;;;1.52;;
27576;SDS011;15011;53.380;10.034;2022-09-09T11:54:44;3.65;;;1.92;;
27576;SDS011;15011;53.380;10.034;2022-09-09T11:59:29;4.60;;;2.00;;
27576;SDS011;15011;53.380;10.034;2022-09-09T12:04:32;2.65;;;1.52;;
27576;SDS011;15011;53.380;10.034;2022-09-09T12:14:58;9.23;;;1.80;;
27576;SDS011;15011;53.380;10.034;2022-09-09T12:20:00;5.90;;;1.80;;
27576;SDS011;15011;53.380;10.034;2022-09-09T12:25:18;6.65;;;2.30;;
27576;SDS011;15011;53.380;10.034;2022-09-09T12:30:40;7.22;;;1.85;;
27576;SDS011;15011;53.380;10.034;2022-09-09T12:40:55;4.93;;;2.00;;
27576;SDS011;15011;53.380;10.034;2022-09-09T12:51:00;5.20;;;2.50;;
27576;SDS011;15011;53.380;10.034;2022-09-09T12:56:03;4.70;;;1.93;;
27576;SDS011;15011;53.380;10.034;2022-09-09T13:01:05;3.58;;;1.95;;
27576;SDS011;15011;53.380;10.034;2022-09-09T13:06:13;4.35;;;1.75;;
27576;SDS011;15011;53.380;10.034;2022-09-09T13:16:31;8.60;;;3.60;;
27576;SDS011;15011;53.380;10.034;2022-09-09T13:21:37;7.10;;;3.40;;
27576;SDS011;15011;53.380;10.034;2022-09-09T13:26:38;7.43;;;3.30;;
27576;SDS011;15011;53.380;10.034;2022-09-09T13:31:39;8.40;;;3.05;;
27576;SDS011;15011;53.380;10.034;2022-09-09T13:36:40;8.32;;;3.25;;
27576;SDS011;15011;53.380;10.034;2022-09-09T13:41:45;5.72;;;3.40;;
27576;SDS011;15011;53.380;10.034;2022-09-09T13:46:58;7.82;;;3.55;;
27576;SDS011;15011;53.380;10.034;2022-09-09T13:52:18;5.97;;;3.90;;
27576;SDS011;15011;53.380;10.034;2022-09-09T13:57:22;9.40;;;2.65;;
27576;SDS011;15011;53.380;10.034;2022-09-09T14:02:25;6.45;;;2.60;;
27576;SDS011;15011;53.380;10.034;2022-09-09T14:07:25;7.33;;;2.50;;
27576;SDS011;15011;53.380;10.034;2022-09-09T14:12:26;6.68;;;2.75;;
27576;SDS011;15011;53.380;10.034;2022-09-09T14:17:26;6.80;;;2.42;;
27576;SDS011;15011;53.380;10.034;2022-09-09T14:22:29;8.45;;;3.05;;
27576;SDS011;15011;53.380;10.034;2022-09-09T14:27:29;5.95;;;2.45;;
27576;SDS011;15011;53.380;10.034;2022-09-09T14:32:30;4.35;;;2.13;;
27576;SDS011;15011;53.380;10.034;2022-09-09T14:37:30;6.30;;;3.90;;
27576;SDS011;15011;53.380;10.034;2022-09-09T14:42:31;8.23;;;3.25;;
27576;SDS011;15011;53.380;10.034;2022-09-09T14:47:31;11.35;;;2.90;;
27576;SDS011;15011;53.380;10.034;2022-09-09T14:52:32;6.68;;;2.30;;
27576;SDS011;15011;53.380;10.034;2022-09-09T14:57:33;6.07;;;2.58;;
27576;SDS011;15011;53.380;10.034;2022-09-09T15:02:34;4.75;;;3.10;;
27576;SDS011;15011;53.380;10.034;2022-09-09T15:07:35;9.70;;;3.40;;
27576;SDS011;15011;53.380;10.034;2022-09-09T15:12:35;6.25;;;2.42;;
27576;SDS011;15011;53.380;10.034;2022-09-09T15:17:36;5.60;;;2.55;;
27576;SDS011;15011;53.380;10.034;2022-09-09T15:22:36;3.60;;;1.60;;
27576;SDS011;15011;53.380;10.034;2022-09-09T15:27:37;3.83;;;2.22;;
27576;SDS011;15011;53.380;10.034;2022-09-09T15:32:39;5.13;;;2.35;;
27576;SDS011;15011;53.380;10.034;2022-09-09T15:37:39;3.83;;;1.90;;
27576;SDS011;15011;53.380;10.034;2022-09-09T15:42:40;4.93;;;1.70;;
27576;SDS011;15011;53.380;10.034;2022-09-09T15:47:40;5.38;;;1.67;;
27576;SDS011;15011;53.380;10.034;2022-09-09T15:52:40;5.05;;;1.42;;
27576;SDS011;15011;53.380;10.034;2022-09-09T15:57:41;2.95;;;1.33;;
27576;SDS011;15011;53.380;10.034;2022-09-09T16:02:41;3.20;;;1.60;;
27576;SDS011;15011;53.380;10.034;2022-09-09T16:07:42;3.00;;;1.35;;
27576;SDS011;15011;53.380;10.034;2022-09-09T16:17:45;6.63;;;1.77;;
27576;SDS011;15011;53.380;10.034;2022-09-09T16:22:46;6.40;;;2.45;;
27576;SDS011;15011;53.380;10.034;2022-09-09T16:27:46;7.43;;;2.33;;
27576;SDS011;15011;53.380;10.034;2022-09-09T16:32:47;6.28;;;1.80;;
27576;SDS011;15011;53.380;10.034;2022-09-09T16:37:47;5.72;;;2.13;;
27576;SDS011;15011;53.380;10.034;2022-09-09T16:42:48;7.00;;;2.30;;
27576;SDS011;15011;53.380;10.034;2022-09-09T16:47:48;8.45;;;2.70;;
27576;SDS011;15011;53.380;10.034;2022-09-09T16:52:48;7.28;;;3.67;;
27576;SDS011;15011;53.380;10.034;2022-09-09T16:57:49;10.00;;;4.80;;
27576;SDS011;15011;53.380;10.034;2022-09-09T17:02:49;11.07;;;4.47;;
27576;SDS011;15011;53.380;10.034;2022-09-09T17:07:50;7.63;;;4.13;;
27576;SDS011;15011;53.380;10.034;2022-09-09T17:12:51;5.88;;;2.65;;
27576;SDS011;15011;53.380;10.034;2022-09-09T17:17:51;5.60;;;2.60;;
27576;SDS011;15011;53.380;10.034;2022-09-09T17:22:53;5.78;;;2.50;;
27576;SDS011;15011;53.380;10.034;2022-09-09T17:27:54;4.65;;;2.60;;
27576;SDS011;15011;53.380;10.034;2022-09-09T17:32:55;7.03;;;2.83;;
27576;SDS011;15011;53.380;10.034;2022-09-09T17:37:55;6.10;;;2.90;;
27576;SDS011;15011;53.380;10.034;2022-09-09T17:42:56;8.20;;;3.60;;
27576;SDS011;15011;53.380;10.034;2022-09-09T17:47:57;12.52;;;3.38;;
27576;SDS011;15011;53.380;10.034;2022-09-09T17:52:57;5.00;;;3.80;;
27576;SDS011;15011;53.380;10.034;2022-09-09T17:57:57;9.30;;;4.60;;
27576;SDS011;15011;53.380;10.034;2022-09-09T18:02:59;8.18;;;4.93;;
27576;SDS011;15011;53.380;10.034;2022-09-09T18:07:59;12.15;;;8.10;;
27576;SDS011;15011;53.380;10.034;2022-09-09T18:13:00;8.43;;;5.57;;
27576;SDS011;15011;53.380;10.034;2022-09-09T18:18:01;9.32;;;6.22;;
27576;SDS011;15011;53.380;10.034;2022-09-09T18:23:05;6.22;;;4.57;;
27576;SDS011;15011;53.380;10.034;2022-09-09T18:28:06;22.83;;;10.20;;
27576;SDS011;15011;53.380;10.034;2022-09-09T18:33:07;7.30;;;6.17;;
27576;SDS011;15011;53.380;10.034;2022-09-09T18:38:08;8.40;;;4.97;;
27576;SDS011;15011;53.380;10.034;2022-09-09T18:43:08;23.40;;;16.70;;
27576;SDS011;15011;53.380;10.034;2022-09-09T18:48:10;13.55;;;5.50;;
27576;SDS011;15011;53.380;10.034;2022-09-09T18:53:11;9.02;;;4.78;;
27576;SDS011;15011;53.380;10.034;2022-09-09T18:58:14;8.30;;;4.68;;
27576;SDS011;15011;53.380;10.034;2022-09-09T19:03:15;7.95;;;6.28;;
27576;SDS011;15011;53.380;10.034;2022-09-09T19:08:17;9.13;;;6.63;;
27576;SDS011;15011;53.380;10.034;2022-09-09T19:13:19;9.80;;;5.57;;
27576;SDS011;15011;53.380;10.034;2022-09-09T19:18:20;9.60;;;8.20;;
27576;SDS011;15011;53.380;10.034;2022-09-09T19:23:20;11.35;;;7.82;;
27576;SDS011;15011;53.380;10.034;2022-09-09T19:28:20;10.13;;;7.10;;
27576;SDS011;15011;53.380;10.034;2022-09-09T19:33:21;8.07;;;6.20;;
27576;SDS011;15011;53.380;10.034;2022-09-09T19:38:21;10.77;;;5.75;;
27576;SDS011;15011;53.380;10.034;2022-09-09T19:43:23;12.02;;;7.82;;
27576;SDS011;15011;53.380;10.034;2022-09-09T19:48:24;11.30;;;6.72;;
27576;SDS011;15011;53.380;10.034;2022-09-09T19:53:26;11.25;;;7.13;;
27576;SDS011;15011;53.380;10.034;2022-09-09T19:58:26;11.93;;;6.68;;
27576;SDS011;15011;53.380;10.034;2022-09-09T20:03:28;8.52;;;6.93;;
27576;SDS011;15011;53.380;10.034;2022-09-09T20:08:28;10.52;;;7.32;;
27576;SDS011;15011;53.380;10.034;2022-09-09T20:13:29;9.13;;;6.93;;
27576;SDS011;15011;53.380;10.034;2022-09-09T20:23:36;8.90;;;7.43;;
27576;SDS011;15011;53.380;10.034;2022-09-09T20:28:37;11.38;;;7.72;;
27576;SDS011;15011;53.380;10.034;2022-09-09T20:33:39;11.75;;;9.52;;
27576;SDS011;15011;53.380;10.034;2022-09-09T20:38:46;11.48;;;7.68;;
27576;SDS011;15011;53.380;10.034;2022-09-09T20:43:52;15.38;;;11.85;;
27576;SDS011;15011;53.380;10.034;2022-09-09T20:48:56;13.85;;;10.10;;
27576;SDS011;15011;53.380;10.034;2022-09-09T20:53:58;16.37;;;10.07;;
27576;SDS011;15011;53.380;10.034;2022-09-09T20:59:03;13.80;;;7.88;;
27576;SDS011;15011;53.380;10.034;2022-09-09T21:04:05;15.57;;;7.97;;
27576;SDS011;15011;53.380;10.034;2022-09-09T21:09:05;18.77;;;10.57;;
27576;SDS011;15011;53.380;10.034;2022-09-09T21:14:06;10.73;;;7.45;;
27576;SDS011;15011;53.380;10.034;2022-09-09T21:19:06;12.23;;;8.05;;
27576;SDS011;15011;53.380;10.034;2022-09-09T21:24:07;13.75;;;8.93;;
27576;SDS011;15011;53.380;10.034;2022-09-09T21:29:08;14.82;;;7.40;;
27576;SDS011;15011;53.380;10.034;2022-09-09T21:34:09;10.63;;;6.30;;
27576;SDS011;15011;53.380;10.034;2022-09-09T21:39:11;14.17;;;9.03;;
27576;SDS011;15011;53.380;10.034;2022-09-09T21:44:11;12.27;;;6.43;;
27576;SDS011;15011;53.380;10.034;2022-09-09T21:49:13;11.73;;;5.55;;
27576;SDS011;15011;53.380;10.034;2022-09-09T21:54:13;7.20;;;4.80;;
27576;SDS011;15011;53.380;10.034;2022-09-09T21:59:14;5.70;;;4.55;;
27576;SDS011;15011;53.380;10.034;2022-09-09T22:04:14;7.78;;;4.88;;
27576;SDS011;15011;53.380;10.034;2022-09-09T22:09:15;8.15;;;4.57;;
27576;SDS011;15011;53.380;10.034;2022-09-09T22:14:15;13.43;;;5.70;;
27576;SDS011;15011;53.380;10.034;2022-09-09T22:19:16;8.85;;;5.60;;
27576;SDS011;15011;53.380;10.034;2022-09-09T22:24:16;10.70;;;7.00;;
27576;SDS011;15011;53.380;10.034;2022-09-09T22:29:17;12.40;;;6.82;;
27576;SDS011;15011;53.380;10.034;2022-09-09T22:34:17;8.02;;;5.03;;
27576;SDS011;15011;53.380;10.034;2022-09-09T22:39:20;11.73;;;7.50;;
27576;SDS011;15011;53.380;10.034;2022-09-09T22:44:23;13.93;;;7.83;;
27576;SDS011;15011;53.380;10.034;2022-09-09T22:49:25;10.38;;;7.40;;
27576;SDS011;15011;53.380;10.034;2022-09-09T22:54:26;10.05;;;5.00;;
27576;SDS011;15011;53.380;10.034;2022-09-09T22:59:26;9.45;;;5.00;;
27576;SDS011;15011;53.380;10.034;2022-09-09T23:04:27;13.23;;;6.45;;
27576;SDS011;15011;53.380;10.034;2022-09-09T23:09:27;8.10;;;5.00;;
27576;SDS011;15011;53.380;10.034;2022-09-09T23:14:28;12.75;;;5.47;;
27576;SDS011;15011;53.380;10.034;2022-09-09T23:19:31;6.85;;;5.25;;
27576;SDS011;15011;53.380;10.034;2022-09-09T23:24:31;7.28;;;5.63;;
27576;SDS011;15011;53.380;10.034;2022-09-09T23:29:32;5.50;;;3.92;;
27576;SDS011;15011;53.380;10.034;2022-09-09T23:34:32;8.27;;;4.75;;
27576;SDS011;15011;53.380;10.034;2022-09-09T23:39:34;8.77;;;4.17;;
27576;SDS011;15011;53.380;10.034;2022-09-09T23:44:34;10.38;;;4.65;;
27576;SDS011;15011;53.380;10.034;2022-09-09T23:49:37;7.97;;;6.13;;
27576;SDS011;15011;53.380;10.034;2022-09-09T23:54:38;15.15;;;7.97;;
27576;SDS011;15011;53.380;10.034;2022-09-09T23:59:38;8.43;;;5.77;;
